createdAt,value
2018-07-23T00:07:33.972Z,19.80
2018-07-23T00:22:38.049Z,19.68
2018-07-23T00:37:42.024Z,19.47
2018-07-23T00:52:46.119Z,18.87
2018-07-23T01:07:50.087Z,18.37
2018-07-23T01:22:53.955Z,17.96
2018-07-23T01:37:57.967Z,18.00
2018-07-23T01:53:02.178Z,17.87
2018-07-23T02:08:06.171Z,17.76
2018-07-23T02:23:10.379Z,17.17
2018-07-23T02:38:14.198Z,16.95
2018-07-23T02:53:18.043Z,16.84
2018-07-23T03:08:21.936Z,16.94
2018-07-23T03:23:25.852Z,17.02
2018-07-23T03:38:29.716Z,17.69
2018-07-23T03:53:33.923Z,18.99
2018-07-23T04:08:38.272Z,20.64
2018-07-23T04:23:42.123Z,22.74
2018-07-23T04:38:46.101Z,24.89
2018-07-23T04:53:49.960Z,26.46
2018-07-23T05:08:53.921Z,27.52
2018-07-23T05:23:57.851Z,29.20
2018-07-23T05:39:01.866Z,30.34
2018-07-23T05:54:06.591Z,31.72
2018-07-23T06:09:10.970Z,31.92
2018-07-23T06:24:15.095Z,33.33
2018-07-23T06:39:19.171Z,34.19
2018-07-23T06:54:23.052Z,33.66
2018-07-23T07:09:27.537Z,35.40
2018-07-23T07:24:31.362Z,35.27
2018-07-23T07:39:35.189Z,35.51
2018-07-23T07:54:39.256Z,35.69
2018-07-23T08:09:43.267Z,36.77
2018-07-23T08:24:47.143Z,37.11
2018-07-23T08:39:51.209Z,37.71
2018-07-23T08:54:55.103Z,37.93
2018-07-23T09:09:59.349Z,38.78
2018-07-23T09:25:04.251Z,36.81
2018-07-23T09:40:08.649Z,36.15
2018-07-23T09:55:12.649Z,32.92
2018-07-23T10:10:16.958Z,24.19
2018-07-23T10:25:21.054Z,23.90
2018-07-23T10:40:25.304Z,23.80
2018-07-23T10:55:29.535Z,22.91
2018-07-23T11:10:33.540Z,20.01
2018-07-23T11:25:39.635Z,19.55
2018-07-23T11:40:41.705Z,19.70
2018-07-23T11:55:45.881Z,20.48
2018-07-23T12:10:49.953Z,20.58
2018-07-23T12:25:53.921Z,20.96
2018-07-23T12:40:57.895Z,23.60
2018-07-23T12:56:01.763Z,26.82
2018-07-23T13:11:05.716Z,26.90
2018-07-23T13:26:09.976Z,24.63
2018-07-23T13:41:14.272Z,21.36
2018-07-23T13:56:18.393Z,21.10
2018-07-23T14:11:22.672Z,18.34
2018-07-23T14:26:27.075Z,18.76
2018-07-23T14:41:31.022Z,19.16
2018-07-23T14:56:34.990Z,19.73
2018-07-23T15:11:38.971Z,19.91
2018-07-23T15:26:43.654Z,20.57
2018-07-23T15:41:48.049Z,20.56
2018-07-23T15:56:51.967Z,20.70
2018-07-23T16:11:55.937Z,19.54
2018-07-23T16:27:00.098Z,19.11
2018-07-23T16:42:04.137Z,19.13
2018-07-23T16:57:08.166Z,20.28
2018-07-23T17:12:12.450Z,19.84
2018-07-23T17:27:16.346Z,19.72
2018-07-23T17:42:20.272Z,19.85
2018-07-23T17:57:24.331Z,19.39
2018-07-23T18:12:28.292Z,17.65
2018-07-23T18:27:32.513Z,17.73
2018-07-23T18:42:36.608Z,17.90
2018-07-23T18:57:40.819Z,18.17
2018-07-23T19:12:44.865Z,17.44
2018-07-23T19:27:49.172Z,17.32
2018-07-23T19:42:53.113Z,17.47
2018-07-23T19:57:56.549Z,17.21
2018-07-23T20:13:00.849Z,16.98
2018-07-23T20:28:04.819Z,17.25
2018-07-23T20:43:08.773Z,17.23
2018-07-23T20:58:12.929Z,16.97
2018-07-23T21:13:17.353Z,16.93
2018-07-23T21:28:21.468Z,16.97
2018-07-23T21:43:25.751Z,16.91
2018-07-23T21:58:29.729Z,16.80
2018-07-23T22:13:33.757Z,16.72
2018-07-23T22:28:37.776Z,16.75
2018-07-23T22:43:41.883Z,16.80
2018-07-23T22:58:45.744Z,16.87
2018-07-23T23:13:49.994Z,16.87
2018-07-23T23:28:53.847Z,16.70
2018-07-23T23:43:58.073Z,16.71
2018-07-23T23:59:02.127Z,16.79
